Main page
METAR-TAF:

METAR-TAF

Airports :

Ortonville Municipal Airport (Martinson Field)

Ortonville, Minnesota, United States

latitude: 45-18-20N, longitude: 096-25-28W, elevation: 1099 ft

Current weather observation

The report was made 25 minutes ago, at 08:15 UTC
Wind 9 mph from the West with gusts up to 16 mph
Temperature 52°F
Humidity 76%
Pressure 29.68 in. Hg
Visibility: 10 miles
Clear sky

METAR: KVVV 220815Z AUTO 28008G14KT 10SM CLR 11/07 A2968 RMK AO2

Time: 03:40 (08:40 UTC)


TAF: missing

Weather observations and forecasts of more than 4000 airports (METAR and TAF reports).

The available stations are represented by yellow and red dots on the map.

Hover mouse over dot to see the name of the station.

Then click to see weather observations and forecasts.

To change the map : click on the green buttons with a black cross to zoom in, on the green button with a dash to zoom out, or on the green arrows for adjacent maps.


METAR-TAF: